sensor_id;sensor_type;location;lat;lon;timestamp;pressure;altitude;pressure_sealevel;temperature;humidity
38022;BME280;23832;43.216;27.946;2023-02-11T00:00:46;102795.06;;;1.75;41.29
38022;BME280;23832;43.216;27.946;2023-02-11T00:02:50;102799.53;;;1.72;41.38
38022;BME280;23832;43.216;27.946;2023-02-11T00:04:52;102794.34;;;1.72;41.66
38022;BME280;23832;43.216;27.946;2023-02-11T00:06:54;102796.09;;;1.71;41.78
38022;BME280;23832;43.216;27.946;2023-02-11T00:08:56;102797.81;;;1.70;41.65
38022;BME280;23832;43.216;27.946;2023-02-11T00:10:57;102792.69;;;1.69;41.91
38022;BME280;23832;43.216;27.946;2023-02-11T00:12:59;102795.38;;;1.67;42.02
38022;BME280;23832;43.216;27.946;2023-02-11T00:15:00;102801.47;;;1.66;41.89
38022;BME280;23832;43.216;27.946;2023-02-11T00:17:02;102798.94;;;1.65;41.95
38022;BME280;23832;43.216;27.946;2023-02-11T00:19:05;102803.28;;;1.64;42.22
38022;BME280;23832;43.216;27.946;2023-02-11T00:21:10;102795.56;;;1.63;42.21
38022;BME280;23832;43.216;27.946;2023-02-11T00:23:12;102794.72;;;1.62;42.20
38022;BME280;23832;43.216;27.946;2023-02-11T00:25:14;102793.88;;;1.62;41.86
38022;BME280;23832;43.216;27.946;2023-02-11T00:27:15;102791.28;;;1.62;41.58
38022;BME280;23832;43.216;27.946;2023-02-11T00:29:17;102786.97;;;1.61;41.55
38022;BME280;23832;43.216;27.946;2023-02-11T00:31:19;102783.66;;;1.57;41.94
38022;BME280;23832;43.216;27.946;2023-02-11T00:33:22;102788.13;;;1.54;41.92
38022;BME280;23832;43.216;27.946;2023-02-11T00:35:25;102782.19;;;1.50;42.06
38022;BME280;23832;43.216;27.946;2023-02-11T00:37:26;102792.72;;;1.47;42.40
38022;BME280;23832;43.216;27.946;2023-02-11T00:39:28;102786.75;;;1.45;42.26
38022;BME280;23832;43.216;27.946;2023-02-11T00:41:31;102786.84;;;1.42;42.39
38022;BME280;23832;43.216;27.946;2023-02-11T00:43:34;102784.31;;;1.40;42.28
38022;BME280;23832;43.216;27.946;2023-02-11T00:45:36;102788.69;;;1.40;42.10
38022;BME280;23832;43.216;27.946;2023-02-11T00:47:37;102784.38;;;1.39;42.02
38022;BME280;23832;43.216;27.946;2023-02-11T00:49:39;102780.88;;;1.40;41.93
38022;BME280;23832;43.216;27.946;2023-02-11T00:51:42;102780.94;;;1.38;42.45
38022;BME280;23832;43.216;27.946;2023-02-11T00:53:44;102781.84;;;1.37;42.08
38022;BME280;23832;43.216;27.946;2023-02-11T00:55:46;102785.38;;;1.36;42.62
38022;BME280;23832;43.216;27.946;2023-02-11T00:57:47;102774.13;;;1.36;42.62
38022;BME280;23832;43.216;27.946;2023-02-11T00:59:49;102770.72;;;1.34;42.42
38022;BME280;23832;43.216;27.946;2023-02-11T01:01:51;102773.31;;;1.34;42.34
38022;BME280;23832;43.216;27.946;2023-02-11T01:03:54;102777.66;;;1.33;42.14
38022;BME280;23832;43.216;27.946;2023-02-11T01:05:56;102776.81;;;1.33;42.72
38022;BME280;23832;43.216;27.946;2023-02-11T01:07:59;102770.84;;;1.31;42.54
38022;BME280;23832;43.216;27.946;2023-02-11T01:10:01;102765.72;;;1.29;42.70
38022;BME280;23832;43.216;27.946;2023-02-11T01:12:03;102766.56;;;1.30;42.73
38022;BME280;23832;43.216;27.946;2023-02-11T01:14:05;102765.72;;;1.29;42.73
38022;BME280;23832;43.216;27.946;2023-02-11T01:16:07;102763.19;;;1.28;42.60
38022;BME280;23832;43.216;27.946;2023-02-11T01:18:09;102764.13;;;1.25;42.23
38022;BME280;23832;43.216;27.946;2023-02-11T01:20:14;102764.13;;;1.25;42.80
38022;BME280;23832;43.216;27.946;2023-02-11T01:22:16;102763.28;;;1.25;42.75
38022;BME280;23832;43.216;27.946;2023-02-11T01:24:21;102752.19;;;1.21;42.89
38022;BME280;23832;43.216;27.946;2023-02-11T01:26:23;102760.09;;;1.18;43.15
38022;BME280;23832;43.216;27.946;2023-02-11T01:28:25;102755.84;;;1.16;42.98
38022;BME280;23832;43.216;27.946;2023-02-11T01:30:28;102751.84;;;1.08;42.80
38022;BME280;23832;43.216;27.946;2023-02-11T01:32:31;102752.91;;;1.03;43.14
38022;BME280;23832;43.216;27.946;2023-02-11T01:34:33;102743.59;;;0.97;43.76
38022;BME280;23832;43.216;27.946;2023-02-11T01:36:34;102750.72;;;0.92;43.81
38022;BME280;23832;43.216;27.946;2023-02-11T01:38:37;102749.94;;;0.90;43.71
38022;BME280;23832;43.216;27.946;2023-02-11T01:40:46;102753.41;;;0.89;43.81
38022;BME280;23832;43.216;27.946;2023-02-11T01:42:48;102749.25;;;0.85;44.26
38022;BME280;23832;43.216;27.946;2023-02-11T01:44:50;102757.13;;;0.83;44.46
38022;BME280;23832;43.216;27.946;2023-02-11T01:46:56;102753.75;;;0.81;44.91
38022;BME280;23832;43.216;27.946;2023-02-11T01:48:59;102754.59;;;0.82;44.73
38022;BME280;23832;43.216;27.946;2023-02-11T01:51:03;102759.78;;;0.82;44.71
38022;BME280;23832;43.216;27.946;2023-02-11T01:53:07;102757.22;;;0.80;44.22
38022;BME280;23832;43.216;27.946;2023-02-11T01:55:22;102743.44;;;0.78;44.42
38022;BME280;23832;43.216;27.946;2023-02-11T01:57:44;102750.31;;;0.79;44.99
38022;BME280;23832;43.216;27.946;2023-02-11T01:59:47;102745.97;;;0.80;44.62
38022;BME280;23832;43.216;27.946;2023-02-11T02:01:55;102744.28;;;0.79;44.66
38022;BME280;23832;43.216;27.946;2023-02-11T02:03:58;102754.69;;;0.79;44.67
38022;BME280;23832;43.216;27.946;2023-02-11T02:06:02;102756.50;;;0.77;44.81
38022;BME280;23832;43.216;27.946;2023-02-11T02:08:09;102751.31;;;0.77;44.64
38022;BME280;23832;43.216;27.946;2023-02-11T02:10:13;102747.91;;;0.75;44.59
38022;BME280;23832;43.216;27.946;2023-02-11T02:12:20;102751.44;;;0.74;44.89
38022;BME280;23832;43.216;27.946;2023-02-11T02:14:23;102748.88;;;0.72;44.92
38022;BME280;23832;43.216;27.946;2023-02-11T02:16:28;102749.75;;;0.73;45.12
38022;BME280;23832;43.216;27.946;2023-02-11T02:18:34;102748.00;;;0.72;45.07
38022;BME280;23832;43.216;27.946;2023-02-11T02:25:26;102750.63;;;0.72;44.77
38022;BME280;23832;43.216;27.946;2023-02-11T02:27:40;102756.69;;;0.72;44.52
38022;BME280;23832;43.216;27.946;2023-02-11T02:29:52;102757.56;;;0.71;44.69
38022;BME280;23832;43.216;27.946;2023-02-11T02:34:14;102756.00;;;0.67;44.67
38022;BME280;23832;43.216;27.946;2023-02-11T02:36:21;102755.28;;;0.64;44.59
38022;BME280;23832;43.216;27.946;2023-02-11T02:38:26;102763.06;;;0.64;44.63
38022;BME280;23832;43.216;27.946;2023-02-11T02:40:30;102754.44;;;0.63;45.17
38022;BME280;23832;43.216;27.946;2023-02-11T02:42:32;102757.91;;;0.62;45.18
38022;BME280;23832;43.216;27.946;2023-02-11T02:44:34;102752.84;;;0.59;45.17
38022;BME280;23832;43.216;27.946;2023-02-11T02:46:36;102755.56;;;0.56;44.95
38022;BME280;23832;43.216;27.946;2023-02-11T02:48:38;102757.31;;;0.55;44.92
38022;BME280;23832;43.216;27.946;2023-02-11T02:50:41;102751.25;;;0.55;45.13
38022;BME280;23832;43.216;27.946;2023-02-11T02:52:45;102765.09;;;0.55;45.18
38022;BME280;23832;43.216;27.946;2023-02-11T02:55:06;102768.63;;;0.53;45.41
38022;BME280;23832;43.216;27.946;2023-02-11T02:57:12;102766.09;;;0.51;45.22
38022;BME280;23832;43.216;27.946;2023-02-11T02:59:19;102763.56;;;0.50;44.76
38022;BME280;23832;43.216;27.946;2023-02-11T03:01:27;102761.88;;;0.49;44.95
38022;BME280;23832;43.216;27.946;2023-02-11T03:03:37;102760.19;;;0.48;45.40
38022;BME280;23832;43.216;27.946;2023-02-11T03:05:46;102762.78;;;0.48;45.33
38022;BME280;23832;43.216;27.946;2023-02-11T03:07:50;102767.06;;;0.49;45.41
38022;BME280;23832;43.216;27.946;2023-02-11T03:09:55;102762.72;;;0.49;45.54
38022;BME280;23832;43.216;27.946;2023-02-11T03:11:59;102755.81;;;0.48;45.40
38022;BME280;23832;43.216;27.946;2023-02-11T03:14:01;102761.88;;;0.49;45.41
38022;BME280;23832;43.216;27.946;2023-02-11T03:16:06;102756.72;;;0.47;45.37
38022;BME280;23832;43.216;27.946;2023-02-11T03:18:10;102761.06;;;0.47;45.44
38022;BME280;23832;43.216;27.946;2023-02-11T03:20:14;102764.59;;;0.46;45.17
38022;BME280;23832;43.216;27.946;2023-02-11T03:22:19;102767.19;;;0.46;45.09
38022;BME280;23832;43.216;27.946;2023-02-11T03:24:23;102769.81;;;0.44;45.29
38022;BME280;23832;43.216;27.946;2023-02-11T03:26:29;102768.97;;;0.44;45.05
38022;BME280;23832;43.216;27.946;2023-02-11T03:28:32;102767.25;;;0.43;45.18
38022;BME280;23832;43.216;27.946;2023-02-11T03:30:37;102764.72;;;0.41;45.54
38022;BME280;23832;43.216;27.946;2023-02-11T03:32:42;102763.09;;;0.39;45.22
38022;BME280;23832;43.216;27.946;2023-02-11T03:34:52;102759.72;;;0.37;45.65
38022;BME280;23832;43.216;27.946;2023-02-11T03:36:59;102754.56;;;0.35;45.31
38022;BME280;23832;43.216;27.946;2023-02-11T03:39:04;102766.75;;;0.33;45.60
38022;BME280;23832;43.216;27.946;2023-02-11T03:41:07;102756.38;;;0.33;45.36
38022;BME280;23832;43.216;27.946;2023-02-11T03:43:12;102758.19;;;0.31;45.90
38022;BME280;23832;43.216;27.946;2023-02-11T03:45:18;102755.66;;;0.30;45.76
38022;BME280;23832;43.216;27.946;2023-02-11T03:47:27;102761.69;;;0.30;45.70
38022;BME280;23832;43.216;27.946;2023-02-11T03:49:30;102753.91;;;0.30;45.41
38022;BME280;23832;43.216;27.946;2023-02-11T03:51:32;102751.38;;;0.28;44.99
38022;BME280;23832;43.216;27.946;2023-02-11T03:53:35;102742.94;;;0.22;45.58
38022;BME280;23832;43.216;27.946;2023-02-11T03:55:40;102753.44;;;0.19;45.74
38022;BME280;23832;43.216;27.946;2023-02-11T03:57:43;102750.03;;;0.17;45.63
38022;BME280;23832;43.216;27.946;2023-02-11T03:59:48;102750.16;;;0.14;45.84
38022;BME280;23832;43.216;27.946;2023-02-11T04:01:50;102748.47;;;0.13;45.89
38022;BME280;23832;43.216;27.946;2023-02-11T04:03:52;102747.69;;;0.11;45.69
38022;BME280;23832;43.216;27.946;2023-02-11T04:05:54;102748.56;;;0.10;46.12
38022;BME280;23832;43.216;27.946;2023-02-11T04:07:55;102745.16;;;0.08;46.29
38022;BME280;23832;43.216;27.946;2023-02-11T04:09:57;102736.59;;;0.06;46.16
38022;BME280;23832;43.216;27.946;2023-02-11T04:12:01;102745.16;;;0.08;45.83
38022;BME280;23832;43.216;27.946;2023-02-11T04:14:02;102739.97;;;0.08;45.95
38022;BME280;23832;43.216;27.946;2023-02-11T04:16:04;102739.97;;;0.08;46.33
38022;BME280;23832;43.216;27.946;2023-02-11T04:18:08;102727.91;;;0.07;46.06
38022;BME280;23832;43.216;27.946;2023-02-11T04:20:10;102727.13;;;0.05;46.23
38022;BME280;23832;43.216;27.946;2023-02-11T04:22:12;102734.06;;;0.04;46.31
38022;BME280;23832;43.216;27.946;2023-02-11T04:24:14;102723.75;;;0.03;46.42
38022;BME280;23832;43.216;27.946;2023-02-11T04:26:16;102724.59;;;0.03;46.52
38022;BME280;23832;43.216;27.946;2023-02-11T04:28:19;102729.84;;;0.02;46.18
38022;BME280;23832;43.216;27.946;2023-02-11T04:30:20;102725.56;;;0.01;46.74
38022;BME280;23832;43.216;27.946;2023-02-11T04:32:22;102726.41;;;0.01;46.54
38022;BME280;23832;43.216;27.946;2023-02-11T04:34:23;102725.56;;;0.01;46.63
38022;BME280;23832;43.216;27.946;2023-02-11T04:36:25;102720.31;;;0.02;46.60
38022;BME280;23832;43.216;27.946;2023-02-11T04:38:27;102716.88;;;0.02;46.55
38022;BME280;23832;43.216;27.946;2023-02-11T04:40:28;102720.41;;;-0.01;46.32
38022;BME280;23832;43.216;27.946;2023-02-11T04:42:30;102713.59;;;-0.04;46.31
38022;BME280;23832;43.216;27.946;2023-02-11T04:44:34;102719.66;;;-0.05;46.32
38022;BME280;23832;43.216;27.946;2023-02-11T04:46:37;102715.44;;;-0.07;46.86
38022;BME280;23832;43.216;27.946;2023-02-11T04:48:39;102720.72;;;-0.10;46.30
38022;BME280;23832;43.216;27.946;2023-02-11T04:50:40;102721.56;;;-0.10;46.47
38022;BME280;23832;43.216;27.946;2023-02-11T04:52:42;102713.84;;;-0.11;46.81
38022;BME280;23832;43.216;27.946;2023-02-11T04:54:43;102713.06;;;-0.13;46.88
38022;BME280;23832;43.216;27.946;2023-02-11T04:56:45;102713.06;;;-0.13;46.72
38022;BME280;23832;43.216;27.946;2023-02-11T04:58:47;102714.81;;;-0.14;46.49
38022;BME280;23832;43.216;27.946;2023-02-11T05:00:51;102712.16;;;-0.12;46.42
38022;BME280;23832;43.216;27.946;2023-02-11T05:02:52;102713.00;;;-0.12;46.62
38022;BME280;23832;43.216;27.946;2023-02-11T05:04:54;102716.38;;;-0.10;46.95
38022;BME280;23832;43.216;27.946;2023-02-11T05:06:57;102714.53;;;-0.06;47.05
38022;BME280;23832;43.216;27.946;2023-02-11T05:08:59;102716.97;;;-0.02;47.64
38022;BME280;23832;43.216;27.946;2023-02-11T05:11:01;102709.94;;;0.02;48.14
38022;BME280;23832;43.216;27.946;2023-02-11T05:13:02;102716.75;;;0.05;47.51
38022;BME280;23832;43.216;27.946;2023-02-11T05:15:04;102712.34;;;0.07;47.32
38022;BME280;23832;43.216;27.946;2023-02-11T05:17:09;102718.44;;;0.06;47.05
38022;BME280;23832;43.216;27.946;2023-02-11T05:19:11;102710.66;;;0.06;47.11
38022;BME280;23832;43.216;27.946;2023-02-11T05:21:13;102709.69;;;0.08;47.40
38022;BME280;23832;43.216;27.946;2023-02-11T05:23:15;102704.44;;;0.11;47.46
38022;BME280;23832;43.216;27.946;2023-02-11T05:25:17;102711.94;;;0.19;47.67
38022;BME280;23832;43.216;27.946;2023-02-11T05:27:19;102714.19;;;0.28;48.20
38022;BME280;23832;43.216;27.946;2023-02-11T05:29:21;102710.50;;;0.34;48.01
38022;BME280;23832;43.216;27.946;2023-02-11T05:31:22;102717.19;;;0.41;48.01
38022;BME280;23832;43.216;27.946;2023-02-11T05:33:26;102715.09;;;0.50;47.91
38022;BME280;23832;43.216;27.946;2023-02-11T05:35:27;102723.31;;;0.62;48.13
38022;BME280;23832;43.216;27.946;2023-02-11T05:37:29;102717.66;;;0.74;48.32
38022;BME280;23832;43.216;27.946;2023-02-11T05:39:31;102717.19;;;0.86;47.69
38022;BME280;23832;43.216;27.946;2023-02-11T05:41:33;102715.09;;;0.96;47.57
38022;BME280;23832;43.216;27.946;2023-02-11T05:43:35;102719.06;;;1.04;47.46
38022;BME280;23832;43.216;27.946;2023-02-11T05:45:37;102714.34;;;1.14;47.53
38022;BME280;23832;43.216;27.946;2023-02-11T05:47:39;102725.13;;;1.27;47.51
38022;BME280;23832;43.216;27.946;2023-02-11T05:49:42;102744.56;;;1.38;47.27
38022;BME280;23832;43.216;27.946;2023-02-11T05:51:43;102729.28;;;1.51;46.83
38022;BME280;23832;43.216;27.946;2023-02-11T05:53:45;102732.19;;;1.65;46.90
38022;BME280;23832;43.216;27.946;2023-02-11T05:55:47;102727.28;;;1.78;46.98
38022;BME280;23832;43.216;27.946;2023-02-11T05:57:48;102724.97;;;1.92;46.89
38022;BME280;23832;43.216;27.946;2023-02-11T05:59:50;102728.53;;;2.10;46.75
38022;BME280;23832;43.216;27.946;2023-02-11T06:01:52;102727.78;;;2.27;46.66
38022;BME280;23832;43.216;27.946;2023-02-11T06:03:54;102725.34;;;2.43;46.52
38022;BME280;23832;43.216;27.946;2023-02-11T06:05:57;102728.16;;;2.57;46.17
38022;BME280;23832;43.216;27.946;2023-02-11T06:07:59;102724.09;;;2.70;46.06
38022;BME280;23832;43.216;27.946;2023-02-11T06:10:00;102723.50;;;2.82;45.37
38022;BME280;23832;43.216;27.946;2023-02-11T06:12:03;102720.41;;;2.93;45.15
38022;BME280;23832;43.216;27.946;2023-02-11T06:14:04;102717.44;;;3.01;45.08
38022;BME280;23832;43.216;27.946;2023-02-11T06:16:07;102722.03;;;3.13;45.22
38022;BME280;23832;43.216;27.946;2023-02-11T06:18:08;102727.38;;;3.29;45.19
38022;BME280;23832;43.216;27.946;2023-02-11T06:20:10;102726.63;;;3.44;45.60
38022;BME280;23832;43.216;27.946;2023-02-11T06:22:13;102717.81;;;3.64;45.32
38022;BME280;23832;43.216;27.946;2023-02-11T06:24:15;102724.47;;;3.87;45.43
38022;BME280;23832;43.216;27.946;2023-02-11T06:26:17;102724.22;;;4.09;45.06
38022;BME280;23832;43.216;27.946;2023-02-11T06:28:19;102724.00;;;4.29;44.53
38022;BME280;23832;43.216;27.946;2023-02-11T06:30:21;102720.41;;;4.47;44.26
38022;BME280;23832;43.216;27.946;2023-02-11T06:32:26;102718.66;;;4.64;44.01
38022;BME280;23832;43.216;27.946;2023-02-11T06:34:29;102718.56;;;4.81;43.91
38022;BME280;23832;43.216;27.946;2023-02-11T06:36:30;102718.47;;;4.98;43.45
38022;BME280;23832;43.216;27.946;2023-02-11T06:38:34;102722.03;;;5.13;43.00
38022;BME280;23832;43.216;27.946;2023-02-11T06:40:35;102717.66;;;5.28;43.14
38022;BME280;23832;43.216;27.946;2023-02-11T06:42:37;102719.22;;;5.46;42.99
38022;BME280;23832;43.216;27.946;2023-02-11T06:44:39;102719.78;;;5.67;43.11
38022;BME280;23832;43.216;27.946;2023-02-11T06:46:40;102715.97;;;5.87;42.64
38022;BME280;23832;43.216;27.946;2023-02-11T06:48:42;102722.75;;;6.05;41.96
38022;BME280;23832;43.216;27.946;2023-02-11T06:50:44;102713.03;;;6.21;42.24
38022;BME280;23832;43.216;27.946;2023-02-11T06:52:45;102712.06;;;6.37;41.75
38022;BME280;23832;43.216;27.946;2023-02-11T06:54:48;102716.47;;;6.50;41.06
38022;BME280;23832;43.216;27.946;2023-02-11T06:56:50;102721.59;;;6.66;40.86
38022;BME280;23832;43.216;27.946;2023-02-11T06:58:52;102714.44;;;6.82;41.24
38022;BME280;23832;43.216;27.946;2023-02-11T07:00:55;102718.69;;;6.98;40.80
38022;BME280;23832;43.216;27.946;2023-02-11T07:02:57;102712.38;;;7.15;40.48
38022;BME280;23832;43.216;27.946;2023-02-11T07:04:58;102718.31;;;7.31;40.95
38022;BME280;23832;43.216;27.946;2023-02-11T07:07:00;102712.88;;;7.47;40.35
38022;BME280;23832;43.216;27.946;2023-02-11T07:09:02;102698.72;;;7.62;40.14
38022;BME280;23832;43.216;27.946;2023-02-11T07:11:09;102702.00;;;7.78;39.52
38022;BME280;23832;43.216;27.946;2023-02-11T07:13:11;102708.94;;;7.92;38.79
38022;BME280;23832;43.216;27.946;2023-02-11T07:15:13;102707.25;;;8.04;38.87
38022;BME280;23832;43.216;27.946;2023-02-11T07:17:15;102708.06;;;8.17;38.57
38022;BME280;23832;43.216;27.946;2023-02-11T07:19:18;102699.34;;;8.29;38.55
38022;BME280;23832;43.216;27.946;2023-02-11T07:21:21;102701.84;;;8.43;38.19
38022;BME280;23832;43.216;27.946;2023-02-11T07:23:23;102700.91;;;8.57;38.42
38022;BME280;23832;43.216;27.946;2023-02-11T07:25:25;102700.28;;;8.77;38.57
38022;BME280;23832;43.216;27.946;2023-02-11T07:27:28;102697.88;;;8.98;38.56
38022;BME280;23832;43.216;27.946;2023-02-11T07:29:30;102697.16;;;9.20;38.17
38022;BME280;23832;43.216;27.946;2023-02-11T07:31:32;102691.03;;;9.44;38.08
38022;BME280;23832;43.216;27.946;2023-02-11T07:33:34;102693.59;;;9.67;37.96
38022;BME280;23832;43.216;27.946;2023-02-11T07:35:35;102684.53;;;9.94;38.01
38022;BME280;23832;43.216;27.946;2023-02-11T07:37:37;102682.63;;;10.18;37.54
38022;BME280;23832;43.216;27.946;2023-02-11T07:39:39;102681.56;;;10.43;36.95
38022;BME280;23832;43.216;27.946;2023-02-11T07:41:40;102688.59;;;10.65;36.40
38022;BME280;23832;43.216;27.946;2023-02-11T07:43:45;102678.22;;;10.85;36.18
38022;BME280;23832;43.216;27.946;2023-02-11T07:45:46;102684.41;;;11.06;36.29
38022;BME280;23832;43.216;27.946;2023-02-11T07:47:48;102675.66;;;11.26;35.70
38022;BME280;23832;43.216;27.946;2023-02-11T07:49:50;102671.63;;;11.43;35.48
38022;BME280;23832;43.216;27.946;2023-02-11T07:51:52;102670.19;;;11.60;35.05
38022;BME280;23832;43.216;27.946;2023-02-11T07:53:53;102670.44;;;11.78;35.07
38022;BME280;23832;43.216;27.946;2023-02-11T07:55:56;102669.59;;;11.98;34.78
38022;BME280;23832;43.216;27.946;2023-02-11T07:57:57;102667.56;;;12.21;34.61
38022;BME280;23832;43.216;27.946;2023-02-11T08:00:01;102660.66;;;12.39;34.35
38022;BME280;23832;43.216;27.946;2023-02-11T08:02:05;102669.75;;;12.56;34.12
38022;BME280;23832;43.216;27.946;2023-02-11T08:04:06;102656.69;;;12.74;33.97
38022;BME280;23832;43.216;27.946;2023-02-11T08:06:09;102662.28;;;12.90;33.36
38022;BME280;23832;43.216;27.946;2023-02-11T08:08:11;102668.97;;;13.04;33.07
38022;BME280;23832;43.216;27.946;2023-02-11T08:10:13;102665.78;;;13.20;33.47
38022;BME280;23832;43.216;27.946;2023-02-11T08:12:15;102657.94;;;13.38;32.95
38022;BME280;23832;43.216;27.946;2023-02-11T08:14:17;102649.84;;;13.58;33.03
38022;BME280;23832;43.216;27.946;2023-02-11T08:16:21;102658.13;;;13.83;33.13
38022;BME280;23832;43.216;27.946;2023-02-11T08:18:24;102657.19;;;14.11;32.86
38022;BME280;23832;43.216;27.946;2023-02-11T08:20:25;102652.97;;;14.36;31.84
38022;BME280;23832;43.216;27.946;2023-02-11T08:22:29;102650.94;;;14.58;32.04
38022;BME280;23832;43.216;27.946;2023-02-11T08:24:31;102650.03;;;14.85;32.24
38022;BME280;23832;43.216;27.946;2023-02-11T08:26:34;102647.59;;;15.09;31.86
38022;BME280;23832;43.216;27.946;2023-02-11T08:28:36;102649.28;;;15.36;32.05
38022;BME280;23832;43.216;27.946;2023-02-11T08:30:38;102644.72;;;15.64;31.52
38022;BME280;23832;43.216;27.946;2023-02-11T08:32:42;102642.34;;;15.95;31.87
38022;BME280;23832;43.216;27.946;2023-02-11T08:34:43;102644.63;;;16.24;32.12
38022;BME280;23832;43.216;27.946;2023-02-11T08:36:45;102643.06;;;16.56;32.13
38022;BME280;23832;43.216;27.946;2023-02-11T08:38:48;102634.13;;;16.89;31.94
38022;BME280;23832;43.216;27.946;2023-02-11T08:40:50;102635.63;;;17.16;30.76
38022;BME280;23832;43.216;27.946;2023-02-11T08:42:52;102645.13;;;17.35;30.58
38022;BME280;23832;43.216;27.946;2023-02-11T08:44:54;102628.75;;;17.54;31.24
38022;BME280;23832;43.216;27.946;2023-02-11T08:46:57;102636.03;;;17.77;31.90
38022;BME280;23832;43.216;27.946;2023-02-11T08:49:03;102628.97;;;18.00;31.85
38022;BME280;23832;43.216;27.946;2023-02-11T08:51:05;102622.00;;;18.22;31.62
38022;BME280;23832;43.216;27.946;2023-02-11T08:53:08;102622.09;;;18.37;30.81
38022;BME280;23832;43.216;27.946;2023-02-11T08:55:09;102615.66;;;18.54;30.96
38022;BME280;23832;43.216;27.946;2023-02-11T08:57:11;102620.34;;;18.75;30.69
38022;BME280;23832;43.216;27.946;2023-02-11T08:59:13;102609.00;;;18.96;29.85
38022;BME280;23832;43.216;27.946;2023-02-11T09:01:18;102613.47;;;19.18;29.56
38022;BME280;23832;43.216;27.946;2023-02-11T09:03:20;102611.84;;;19.32;28.38
38022;BME280;23832;43.216;27.946;2023-02-11T09:05:25;102600.88;;;19.42;27.81
38022;BME280;23832;43.216;27.946;2023-02-11T09:07:26;102602.34;;;19.44;26.79
38022;BME280;23832;43.216;27.946;2023-02-11T09:09:29;102604.84;;;19.46;26.99
38022;BME280;23832;43.216;27.946;2023-02-11T09:11:31;102595.06;;;19.53;27.00
38022;BME280;23832;43.216;27.946;2023-02-11T09:13:35;102591.13;;;19.64;27.79
38022;BME280;23832;43.216;27.946;2023-02-11T09:15:37;102584.13;;;19.77;27.70
38022;BME280;23832;43.216;27.946;2023-02-11T09:17:39;102590.53;;;19.98;27.90
38022;BME280;23832;43.216;27.946;2023-02-11T09:19:41;102584.19;;;20.20;27.75
38022;BME280;23832;43.216;27.946;2023-02-11T09:21:44;102593.75;;;20.44;27.27
38022;BME280;23832;43.216;27.946;2023-02-11T09:23:47;102584.63;;;20.60;26.02
38022;BME280;23832;43.216;27.946;2023-02-11T09:25:51;102571.28;;;20.66;25.35
38022;BME280;23832;43.216;27.946;2023-02-11T09:27:52;102572.56;;;20.71;25.46
38022;BME280;23832;43.216;27.946;2023-02-11T09:29:54;102580.28;;;20.80;25.78
38022;BME280;23832;43.216;27.946;2023-02-11T09:31:56;102577.75;;;21.00;25.93
38022;BME280;23832;43.216;27.946;2023-02-11T09:33:59;102570.75;;;21.27;25.92
38022;BME280;23832;43.216;27.946;2023-02-11T09:36:00;102564.28;;;21.49;25.47
38022;BME280;23832;43.216;27.946;2023-02-11T09:38:04;102563.75;;;21.74;25.63
38022;BME280;23832;43.216;27.946;2023-02-11T09:40:06;102553.13;;;22.00;25.47
38022;BME280;23832;43.216;27.946;2023-02-11T09:44:30;102546.22;;;22.59;24.78
38022;BME280;23832;43.216;27.946;2023-02-11T09:46:34;102547.25;;;22.78;24.84
38022;BME280;23832;43.216;27.946;2023-02-11T09:48:39;102541.28;;;22.96;24.19
38022;BME280;23832;43.216;27.946;2023-02-11T09:50:42;102544.34;;;23.12;24.17
38022;BME280;23832;43.216;27.946;2023-02-11T09:52:49;102532.53;;;23.20;23.31
38022;BME280;23832;43.216;27.946;2023-02-11T09:54:54;102525.06;;;23.29;23.51
38022;BME280;23832;43.216;27.946;2023-02-11T09:56:56;102529.97;;;23.45;23.34
38022;BME280;23832;43.216;27.946;2023-02-11T09:58:58;102524.97;;;23.55;22.86
38022;BME280;23832;43.216;27.946;2023-02-11T10:01:01;102518.31;;;23.58;21.94
38022;BME280;23832;43.216;27.946;2023-02-11T10:03:08;102515.84;;;23.56;22.00
38022;BME280;23832;43.216;27.946;2023-02-11T10:05:21;102512.31;;;23.62;22.52
38022;BME280;23832;43.216;27.946;2023-02-11T10:07:29;102506.53;;;23.65;22.06
38022;BME280;23832;43.216;27.946;2023-02-11T10:09:36;102503.16;;;23.76;22.35
38022;BME280;23832;43.216;27.946;2023-02-11T10:11:46;102472.75;;;23.63;20.98
38022;BME280;23832;43.216;27.946;2023-02-11T10:13:51;102490.50;;;23.77;21.43
38022;BME280;23832;43.216;27.946;2023-02-11T10:15:57;102502.69;;;23.86;21.89
38022;BME280;23832;43.216;27.946;2023-02-11T10:18:09;102480.44;;;23.97;22.12
38022;BME280;23832;43.216;27.946;2023-02-11T10:20:18;102474.81;;;23.99;21.31
38022;BME280;23832;43.216;27.946;2023-02-11T10:22:22;102467.09;;;24.09;21.67
38022;BME280;23832;43.216;27.946;2023-02-11T10:24:26;102463.25;;;24.23;21.48
38022;BME280;23832;43.216;27.946;2023-02-11T10:26:29;102467.31;;;24.39;21.61
38022;BME280;23832;43.216;27.946;2023-02-11T10:28:33;102465.53;;;24.51;21.31
38022;BME280;23832;43.216;27.946;2023-02-11T10:30:36;102459.19;;;24.64;21.14
38022;BME280;23832;43.216;27.946;2023-02-11T10:32:41;102460.09;;;24.76;21.22
38022;BME280;23832;43.216;27.946;2023-02-11T10:34:45;102456.53;;;24.82;20.44
38022;BME280;23832;43.216;27.946;2023-02-11T10:36:47;102455.00;;;24.86;20.16
38022;BME280;23832;43.216;27.946;2023-02-11T10:38:49;102449.78;;;24.91;20.11
38022;BME280;23832;43.216;27.946;2023-02-11T10:40:51;102447.66;;;24.94;20.08
38022;BME280;23832;43.216;27.946;2023-02-11T10:42:53;102450.31;;;25.00;20.42
38022;BME280;23832;43.216;27.946;2023-02-11T10:44:58;102445.00;;;25.12;20.31
38022;BME280;23832;43.216;27.946;2023-02-11T10:47:01;102440.78;;;25.16;19.92
38022;BME280;23832;43.216;27.946;2023-02-11T10:49:05;102435.06;;;25.24;20.30